Kezdőlap
METAR-TAF:

METAR-TAF

Repülőterek :

Berlin, New Hampshire, Amerikai Egyesült Államok

földrajzi szélesség: 44-34-34N, földrajzi hosszúság: 071-10-43W, magasság: 353 m

Jelenlegi meteorológiai megfigyelések

A jelentés 38 perccel ezelõtt készült, 17:52 UTC
Északnyugati szél 3 kt
Hőmérséklet -2°C
Páratartalom 59%
Légköri nyomás 1012 hPa
Látótávolság: 16.1 km
Szórványos felhőzet 6000 lábon
Szakadozott felhőzet 8000 lábon
Borult 10000 lábon

METAR: KBML 061752Z AUTO 32003KT 10SM SCT060 BKN080 OVC100 M02/M09 A2988 RMK AO2 SLP136 T10221094 11022 21056 58018

Idő: 13:30 (18:30 UTC)


TAF: hiányzik

Meteorológiai megfigyelések és előrejelzések több, mint 4000 repülőtéren (METAR és TAF jelentéseket).

A térképen piros és sárga pontok jelzik az elérhető meteorológiai állomásokat.

Mozgassa az egeret a pont fölött, hogy megjelenjen az állomás neve.

Azután kattintson az időjárási megfigyelések és előrejelzések megtekintéséhez.

A térkép megváltoztatása: kattintson a fekete keresztel jelölt zöld gombra ráközelítéshez, a vonallal jelölt zöld gombra távolításhoz, vagy a zöld nyilakra a szomszédos térképek eléréséhez.


METAR-TAF: